createdAt,value
2018-12-07T00:04:37.881Z,40.67
2018-12-07T00:09:53.680Z,40.72
2018-12-07T00:15:08.405Z,40.74
2018-12-07T00:20:26.619Z,40.89
2018-12-07T00:25:37.469Z,40.90
2018-12-07T00:30:48.557Z,40.48
2018-12-07T00:35:59.793Z,40.86
2018-12-07T00:41:33.624Z,40.58
2018-12-07T00:46:45.626Z,40.97
2018-12-07T00:52:26.769Z,40.75
2018-12-07T00:57:37.856Z,40.68
2018-12-07T01:03:03.601Z,40.66
2018-12-07T01:08:14.304Z,40.65
2018-12-07T01:13:27.497Z,41.04
2018-12-07T01:18:38.802Z,40.87
2018-12-07T01:23:55.890Z,40.85
2018-12-07T01:29:06.688Z,41.05
2018-12-07T01:37:26.581Z,40.92
2018-12-07T01:42:41.843Z,41.06
2018-12-07T01:47:52.556Z,41.18
2018-12-07T01:53:03.406Z,41.11
2018-12-07T01:58:14.661Z,41.01
2018-12-07T02:03:34.572Z,41.24
2018-12-07T02:08:45.517Z,41.22
2018-12-07T02:13:55.611Z,40.94
2018-12-07T02:19:06.849Z,40.93
2018-12-07T02:24:22.813Z,40.77
2018-12-07T02:32:15.559Z,41.13
2018-12-07T02:37:26.804Z,40.89
2018-12-07T02:42:38.469Z,41.08
2018-12-07T02:47:49.587Z,40.84
2018-12-07T02:52:59.554Z,41.24
2018-12-07T02:58:10.690Z,40.97
2018-12-07T03:03:23.812Z,41.14
2018-12-07T03:08:35.334Z,41.12
2018-12-07T03:16:57.800Z,41.19
2018-12-07T03:22:14.574Z,41.04
2018-12-07T03:27:25.321Z,41.17
2018-12-07T03:32:39.713Z,41.16
2018-12-07T03:37:49.588Z,41.17
2018-12-07T03:43:04.805Z,41.06
2018-12-07T03:48:15.843Z,41.25
2018-12-07T03:53:26.856Z,41.06
2018-12-07T03:58:37.904Z,41.10
2018-12-07T04:03:54.790Z,41.26
2018-12-07T04:09:07.750Z,41.60
2018-12-07T04:14:18.348Z,41.15
2018-12-07T04:19:30.570Z,41.22
2018-12-07T04:24:55.474Z,41.32
2018-12-07T04:30:27.484Z,41.36
2018-12-07T04:35:37.686Z,41.53
2018-12-07T04:40:52.313Z,41.30
2018-12-07T04:46:02.908Z,41.11
2018-12-07T04:51:13.626Z,41.27
2018-12-07T04:56:24.194Z,41.09
2018-12-07T05:01:34.797Z,41.36
2018-12-07T05:06:44.654Z,41.50
2018-12-07T05:12:20.448Z,41.32
2018-12-07T05:17:31.713Z,41.34
2018-12-07T05:22:41.764Z,41.32
2018-12-07T05:27:53.595Z,41.20
2018-12-07T05:33:17.847Z,41.77
2018-12-07T05:38:29.308Z,42.33
2018-12-07T05:43:57.733Z,42.28
2018-12-07T05:49:08.531Z,42.71
2018-12-07T05:54:19.769Z,42.71
2018-12-07T05:59:30.629Z,42.32
2018-12-07T06:04:42.767Z,42.33
2018-12-07T06:10:03.230Z,42.25
2018-12-07T06:15:14.609Z,42.25
2018-12-07T06:20:53.479Z,42.00
2018-12-07T06:26:04.464Z,42.14
2018-12-07T06:37:07.584Z,42.04
2018-12-07T06:42:16.625Z,42.43
2018-12-07T06:47:27.781Z,42.11
2018-12-07T06:52:38.724Z,42.25
2018-12-07T06:57:49.633Z,42.06
2018-12-07T07:03:03.590Z,41.89
2018-12-07T07:08:13.569Z,41.86
2018-12-07T07:13:02.766Z,42.27
2018-12-07T07:18:13.564Z,42.01
2018-12-07T07:27:15.618Z,42.05
2018-12-07T07:32:39.809Z,41.93
2018-12-07T07:37:57.779Z,42.02
2018-12-07T07:45:50.733Z,41.99
2018-12-07T07:51:27.541Z,42.08
2018-12-07T07:56:38.842Z,42.25
2018-12-07T08:02:02.025Z,42.13
2018-12-07T08:07:13.868Z,42.19
2018-12-07T08:12:27.809Z,42.10
2018-12-07T08:17:38.590Z,42.21
2018-12-07T08:22:48.721Z,41.92
2018-12-07T08:27:59.569Z,41.96
2018-12-07T08:33:25.614Z,42.42
2018-12-07T08:39:46.805Z,42.07
2018-12-07T08:44:57.591Z,42.54
2018-12-07T08:50:10.771Z,42.29
2018-12-07T08:55:21.573Z,42.26
2018-12-07T09:00:43.293Z,42.51
2018-12-07T09:05:54.413Z,42.26
2018-12-07T09:11:05.301Z,42.34
2018-12-07T09:16:16.353Z,42.12
2018-12-07T09:21:52.737Z,42.09
2018-12-07T09:27:03.635Z,42.26
2018-12-07T09:32:15.795Z,42.13
2018-12-07T09:37:26.598Z,42.31
2018-12-07T09:42:36.701Z,42.15
2018-12-07T09:47:48.651Z,42.26
2018-12-07T09:52:58.562Z,42.27
2018-12-07T09:58:09.774Z,42.30
2018-12-07T10:03:50.634Z,36.23
2018-12-07T10:09:01.723Z,34.74
2018-12-07T10:14:11.787Z,35.06
2018-12-07T10:19:22.593Z,36.14
2018-12-07T10:24:45.789Z,36.97
2018-12-07T10:29:59.653Z,37.68
2018-12-07T10:35:10.564Z,37.76
2018-12-07T10:40:27.904Z,38.50
2018-12-07T10:45:38.594Z,38.76
2018-12-07T10:50:49.730Z,39.26
2018-12-07T10:56:00.573Z,39.63
2018-12-07T11:01:41.706Z,40.07
2018-12-07T11:07:18.650Z,40.26
2018-12-07T11:12:46.909Z,40.38
2018-12-07T11:18:15.788Z,40.91
2018-12-07T11:24:00.534Z,40.88
2018-12-07T11:29:29.653Z,41.35
2018-12-07T11:35:00.751Z,41.04
2018-12-07T11:40:12.203Z,41.06
2018-12-07T11:45:22.605Z,41.53
2018-12-07T11:50:33.609Z,41.15
2018-12-07T11:55:44.602Z,41.66
2018-12-07T12:00:57.567Z,41.57
2018-12-07T12:06:11.561Z,41.77
2018-12-07T12:11:22.803Z,41.60
2018-12-07T12:16:33.636Z,41.48
2018-12-07T12:21:45.604Z,41.73
2018-12-07T12:26:56.736Z,41.70
2018-12-07T12:32:07.816Z,41.73
2018-12-07T12:37:18.677Z,41.88
2018-12-07T12:51:45.564Z,41.74
2018-12-07T12:56:56.671Z,41.91
2018-12-07T13:02:07.882Z,41.92
2018-12-07T13:07:18.736Z,41.52
2018-12-07T13:12:29.660Z,41.75
2018-12-07T13:17:41.763Z,41.89
2018-12-07T13:22:52.856Z,41.74
2018-12-07T13:28:03.883Z,41.89
2018-12-07T13:33:14.854Z,42.08
2018-12-07T13:38:25.985Z,41.90
2018-12-07T13:43:36.643Z,41.75
2018-12-07T13:48:48.094Z,42.23
2018-12-07T13:54:08.675Z,42.08
2018-12-07T13:59:19.894Z,41.92
2018-12-07T14:04:37.620Z,41.72
2018-12-07T14:09:48.911Z,42.02
2018-12-07T14:14:59.594Z,41.63
2018-12-07T14:20:10.460Z,41.69
2018-12-07T14:25:20.661Z,41.71
2018-12-07T14:30:36.527Z,41.88
2018-12-07T14:35:48.338Z,42.03
2018-12-07T14:41:15.650Z,42.04
2018-12-07T14:46:27.295Z,42.22
2018-12-07T14:51:44.862Z,42.17
2018-12-07T14:56:55.731Z,41.94
2018-12-07T15:02:06.652Z,30.11
2018-12-07T15:07:17.911Z,18.77
2018-12-07T15:12:32.786Z,16.14
2018-12-07T15:17:42.874Z,15.09
2018-12-07T15:22:53.659Z,16.18
2018-12-07T15:28:07.650Z,17.38
2018-12-07T15:33:21.613Z,19.39
2018-12-07T15:38:32.691Z,21.12
2018-12-07T15:52:48.827Z,26.03
2018-12-07T15:57:59.829Z,27.21
2018-12-07T16:03:10.898Z,28.88
2018-12-07T16:05:48.759Z,29.45
2018-12-07T16:10:59.575Z,30.01
2018-12-07T16:16:10.811Z,31.06
2018-12-07T16:27:14.819Z,32.89
2018-12-07T16:32:26.432Z,33.76
2018-12-07T16:37:37.638Z,34.45
2018-12-07T16:42:50.594Z,35.02
2018-12-07T16:48:01.679Z,35.38
2018-12-07T16:53:13.069Z,36.03
2018-12-07T16:58:25.328Z,36.84
2018-12-07T17:03:42.314Z,37.08
2018-12-07T17:08:54.766Z,37.09
2018-12-07T17:14:44.072Z,36.52
2018-12-07T17:20:03.832Z,36.45
2018-12-07T17:25:14.699Z,35.88
2018-12-07T17:30:25.659Z,36.05
2018-12-07T17:35:36.688Z,36.22
2018-12-07T17:40:47.996Z,36.71
2018-12-07T17:45:58.990Z,37.28
2018-12-07T17:51:10.632Z,37.99
2018-12-07T17:56:21.604Z,38.16
2018-12-07T18:01:32.753Z,38.48
2018-12-07T18:06:43.946Z,38.91
2018-12-07T18:11:55.019Z,39.25
2018-12-07T18:17:06.299Z,39.35
2018-12-07T18:22:16.720Z,39.45
2018-12-07T18:27:28.168Z,36.04
2018-12-07T18:32:38.772Z,29.08
2018-12-07T18:37:49.916Z,26.69
2018-12-07T18:43:17.622Z,28.11
2018-12-07T18:48:28.842Z,29.73
2018-12-07T18:53:38.555Z,31.37
2018-12-07T18:58:49.806Z,32.47
2018-12-07T19:04:00.802Z,33.98
2018-12-07T19:09:12.426Z,35.02
2018-12-07T19:14:23.728Z,35.58
2018-12-07T19:19:36.852Z,36.99
2018-12-07T19:24:48.465Z,36.91
2018-12-07T19:30:04.639Z,37.61
2018-12-07T19:35:15.568Z,37.69
2018-12-07T19:40:32.997Z,38.52
2018-12-07T19:45:44.556Z,38.81
2018-12-07T19:56:58.850Z,38.73
2018-12-07T20:02:15.576Z,37.86
2018-12-07T20:07:26.815Z,37.97
2018-12-07T20:12:37.708Z,38.16
2018-12-07T20:17:49.705Z,38.95
2018-12-07T20:23:00.963Z,38.94
2018-12-07T20:28:12.650Z,39.12
2018-12-07T20:33:26.084Z,39.62
2018-12-07T20:38:37.776Z,39.94
2018-12-07T20:43:55.306Z,39.68
2018-12-07T20:49:06.400Z,40.35
2018-12-07T20:54:17.814Z,40.09
2018-12-07T20:59:28.726Z,40.29
2018-12-07T21:04:41.161Z,40.38
2018-12-07T21:14:50.612Z,40.08
2018-12-07T21:22:49.867Z,41.00
2018-12-07T21:27:59.856Z,40.67
2018-12-07T21:34:29.826Z,40.96
2018-12-07T21:39:51.953Z,41.30
2018-12-07T21:45:03.859Z,41.12
2018-12-07T21:51:51.610Z,41.36
2018-12-07T21:59:42.697Z,41.31
2018-12-07T22:04:54.697Z,41.03
2018-12-07T22:10:06.847Z,40.97
2018-12-07T22:15:17.582Z,41.02
2018-12-07T22:20:28.793Z,41.11
2018-12-07T22:25:39.950Z,41.14
2018-12-07T22:31:09.691Z,41.36
2018-12-07T22:36:20.896Z,41.47
2018-12-07T22:41:31.584Z,41.40
2018-12-07T22:46:42.570Z,41.39
2018-12-07T22:51:53.794Z,41.29
2018-12-07T22:57:11.757Z,41.01
2018-12-07T23:02:22.693Z,40.90
2018-12-07T23:07:34.304Z,41.28
2018-12-07T23:12:45.861Z,40.89
2018-12-07T23:17:56.631Z,41.02
2018-12-07T23:23:08.725Z,41.18
2018-12-07T23:28:19.874Z,41.29
2018-12-07T23:33:31.305Z,41.50
2018-12-07T23:37:36.544Z,41.15
2018-12-07T23:42:48.653Z,41.34
2018-12-07T23:47:59.884Z,41.08
2018-12-07T23:53:10.703Z,41.28
2018-12-07T23:58:22.612Z,41.59
